Список аэропортов
Фактическая погода:

23 апреля, 12:30
Температура: +3°C (-0.6*)
Ветер: восточный 4 м/с
Давление: *749 мм
Без существ. явл.
Время (МСК)Темп. СВетерВлажностьДавлениеОблачностьОсадки
09:00+1СВ, 3 м/с64%998 гПаоблачно
10:00+2СВ, 3 м/с56%998 гПаоблачно
11:00+3СВ, 3 м/с49%998 гПас прояснениями
12:00+4СВ, 3 м/с44%998 гПас прояснениями
13:00+5СВ, 3 м/с43%998 гПас прояснениями
14:00+5СВ, 3 м/с42%999 гПас прояснениями
15:00+6СВ, 3 м/с40%999 гПас прояснениями
16:00+6СВ, 3 м/с41%999 гПаоблачно
17:00+6СВ, 3 м/с42%999 гПаоблачно
18:00+5СВ, 3 м/с44%1000 гПаоблачно
19:00+4СВ, 3 м/с48%1000 гПас прояснениями
20:00+2СВ, 2 м/с55%1001 гПас прояснениями
21:000С, 2 м/с63%1001 гПаоблачно
22:00-0С, 2 м/с68%1002 гПаоблачно
23:00-2СВ, 2 м/с73%1003 гПас прояснениями
24 апреля
00:00-3СВ, 2 м/с79%1003 гПамалооблачно
01:00-4СВ, 2 м/с84%1003 гПаясно
02:00-5СВ, 2 м/с90%1004 гПаясно
03:00-6С, 1 м/с91%1005 гПаясно
04:00-7С, 1 м/с92%1005 гПаясно
05:00-8С, 1 м/с91%1006 гПаясно
06:00-7С, 1 м/с88%1007 гПаясно
07:00-6С, 1 м/с80%1007 гПаясно
08:00-4С, 1 м/с69%1007 гПаясно
09:00-1С, 1 м/с54%1008 гПаясно
10:00+2СЗ, 1 м/с48%1008 гПаясно
11:00+4СЗ, 1 м/с43%1008 гПаясно
12:00+5СЗ, 1 м/с42%1008 гПаясно
13:00+5СЗ, 2 м/с42%1009 гПаясно
14:00+5СЗ, 2 м/с44%1009 гПаясно
15:00+5СЗ, 2 м/с44%1009 гПаясно
16:00+5СЗ, 2 м/с46%1009 гПаясно
17:00+4СЗ, 2 м/с49%1009 гПаясно
18:00+3СЗ, 2 м/с53%1010 гПаясно
19:00+2СЗ, 2 м/с60%1010 гПас прояснениями
20:00-0СЗ, 1 м/с70%1010 гПас прояснениями
21:00-3СЗ, 1 м/с91%1010 гПас прояснениями
22:00-4СЗ, 1 м/с93%1010 гПаоблачно
23:00-5СЗ, 1 м/с94%1010 гПас прояснениями
25 апреля
00:00-6С, 1 м/с94%1010 гПамалооблачно
01:00-7СВ, 1 м/с92%1010 гПаясно
02:00-7СВ, 2 м/с92%1011 гПаясно
03:00-7СВ, 2 м/с91%1011 гПамалооблачно
04:00-8В, 2 м/с91%1011 гПамалооблачно
05:00-8В, 1 м/с91%1011 гПамалооблачно
06:00-7В, 1 м/с89%1011 гПаясно
07:00-4В, 2 м/с81%1012 гПаясно
08:00-2В, 1 м/с74%1012 гПаясно
09:00+1СВ, 1 м/с65%1012 гПаясно